sensor_id;sensor_type;location;lat;lon;timestamp;P1;durP1;ratioP1;P2;durP2;ratioP2
45392;SDS011;31129;44.810;10.334;2022-07-06T00:01:53;9.25;;;3.92;;
45392;SDS011;31129;44.810;10.334;2022-07-06T00:04:19;7.50;;;4.30;;
45392;SDS011;31129;44.810;10.334;2022-07-06T00:06:45;9.35;;;3.72;;
45392;SDS011;31129;44.810;10.334;2022-07-06T00:09:11;12.23;;;4.25;;
45392;SDS011;31129;44.810;10.334;2022-07-06T00:11:36;10.82;;;3.42;;
45392;SDS011;31129;44.810;10.334;2022-07-06T00:14:02;12.57;;;3.80;;
45392;SDS011;31129;44.810;10.334;2022-07-06T00:16:28;7.93;;;3.35;;
45392;SDS011;31129;44.810;10.334;2022-07-06T00:18:54;9.98;;;3.55;;
45392;SDS011;31129;44.810;10.334;2022-07-06T00:21:19;9.82;;;3.35;;
45392;SDS011;31129;44.810;10.334;2022-07-06T00:23:45;7.10;;;3.38;;
45392;SDS011;31129;44.810;10.334;2022-07-06T00:26:10;9.40;;;3.42;;
45392;SDS011;31129;44.810;10.334;2022-07-06T00:28:36;6.85;;;3.40;;
45392;SDS011;31129;44.810;10.334;2022-07-06T00:31:02;6.05;;;3.60;;
45392;SDS011;31129;44.810;10.334;2022-07-06T00:33:27;7.13;;;3.38;;
45392;SDS011;31129;44.810;10.334;2022-07-06T00:35:53;9.27;;;2.85;;
45392;SDS011;31129;44.810;10.334;2022-07-06T00:38:19;8.40;;;3.03;;
45392;SDS011;31129;44.810;10.334;2022-07-06T00:40:44;8.77;;;2.75;;
45392;SDS011;31129;44.810;10.334;2022-07-06T00:43:10;8.07;;;2.72;;
45392;SDS011;31129;44.810;10.334;2022-07-06T00:45:35;9.57;;;2.97;;
45392;SDS011;31129;44.810;10.334;2022-07-06T00:48:01;9.20;;;2.80;;
45392;SDS011;31129;44.810;10.334;2022-07-06T00:50:28;6.60;;;2.78;;
45392;SDS011;31129;44.810;10.334;2022-07-06T00:52:59;8.45;;;3.10;;
45392;SDS011;31129;44.810;10.334;2022-07-06T00:55:27;11.43;;;3.33;;
45392;SDS011;31129;44.810;10.334;2022-07-06T00:57:55;7.95;;;3.10;;
45392;SDS011;31129;44.810;10.334;2022-07-06T01:00:25;6.68;;;2.88;;
45392;SDS011;31129;44.810;10.334;2022-07-06T01:02:52;5.68;;;2.80;;
45392;SDS011;31129;44.810;10.334;2022-07-06T01:05:18;10.68;;;2.63;;
45392;SDS011;31129;44.810;10.334;2022-07-06T01:07:45;10.57;;;2.60;;
45392;SDS011;31129;44.810;10.334;2022-07-06T01:10:12;7.45;;;2.65;;
45392;SDS011;31129;44.810;10.334;2022-07-06T01:12:40;7.75;;;2.55;;
45392;SDS011;31129;44.810;10.334;2022-07-06T01:15:07;10.27;;;3.05;;
45392;SDS011;31129;44.810;10.334;2022-07-06T01:17:35;7.10;;;2.90;;
45392;SDS011;31129;44.810;10.334;2022-07-06T01:20:11;7.85;;;2.88;;
45392;SDS011;31129;44.810;10.334;2022-07-06T01:22:37;7.18;;;2.70;;
45392;SDS011;31129;44.810;10.334;2022-07-06T01:25:04;10.43;;;2.65;;
45392;SDS011;31129;44.810;10.334;2022-07-06T01:27:30;5.85;;;2.30;;
45392;SDS011;31129;44.810;10.334;2022-07-06T01:29:57;7.72;;;2.40;;
45392;SDS011;31129;44.810;10.334;2022-07-06T01:32:22;6.57;;;2.83;;
45392;SDS011;31129;44.810;10.334;2022-07-06T01:34:48;6.50;;;2.35;;
45392;SDS011;31129;44.810;10.334;2022-07-06T01:37:13;6.55;;;2.22;;
45392;SDS011;31129;44.810;10.334;2022-07-06T01:39:39;4.78;;;2.00;;
45392;SDS011;31129;44.810;10.334;2022-07-06T01:42:04;6.10;;;1.98;;
45392;SDS011;31129;44.810;10.334;2022-07-06T01:44:30;6.30;;;1.83;;
45392;SDS011;31129;44.810;10.334;2022-07-06T01:46:58;6.30;;;1.65;;
45392;SDS011;31129;44.810;10.334;2022-07-06T01:49:24;11.38;;;1.80;;
45392;SDS011;31129;44.810;10.334;2022-07-06T01:51:50;3.60;;;1.58;;
45392;SDS011;31129;44.810;10.334;2022-07-06T01:54:15;4.93;;;1.58;;
45392;SDS011;31129;44.810;10.334;2022-07-06T01:56:41;6.22;;;1.73;;
45392;SDS011;31129;44.810;10.334;2022-07-06T01:59:07;6.35;;;2.13;;
45392;SDS011;31129;44.810;10.334;2022-07-06T02:01:36;6.80;;;1.95;;
45392;SDS011;31129;44.810;10.334;2022-07-06T02:04:01;4.40;;;1.70;;
45392;SDS011;31129;44.810;10.334;2022-07-06T02:06:27;7.78;;;1.80;;
45392;SDS011;31129;44.810;10.334;2022-07-06T02:08:52;2.13;;;1.50;;
45392;SDS011;31129;44.810;10.334;2022-07-06T02:11:19;4.57;;;1.40;;
45392;SDS011;31129;44.810;10.334;2022-07-06T02:13:44;7.57;;;1.80;;
45392;SDS011;31129;44.810;10.334;2022-07-06T02:16:11;7.80;;;1.50;;
45392;SDS011;31129;44.810;10.334;2022-07-06T02:18:37;5.00;;;1.70;;
45392;SDS011;31129;44.810;10.334;2022-07-06T02:21:04;8.30;;;1.80;;
45392;SDS011;31129;44.810;10.334;2022-07-06T02:23:30;3.25;;;1.60;;
45392;SDS011;31129;44.810;10.334;2022-07-06T02:25:56;7.93;;;2.00;;
45392;SDS011;31129;44.810;10.334;2022-07-06T02:28:23;3.00;;;1.27;;
45392;SDS011;31129;44.810;10.334;2022-07-06T02:30:49;2.92;;;1.30;;
45392;SDS011;31129;44.810;10.334;2022-07-06T02:33:15;5.88;;;1.92;;
45392;SDS011;31129;44.810;10.334;2022-07-06T02:35:40;4.45;;;1.42;;
45392;SDS011;31129;44.810;10.334;2022-07-06T02:38:09;2.38;;;1.42;;
45392;SDS011;31129;44.810;10.334;2022-07-06T02:40:36;3.28;;;1.38;;
45392;SDS011;31129;44.810;10.334;2022-07-06T02:43:02;9.60;;;1.50;;
45392;SDS011;31129;44.810;10.334;2022-07-06T02:45:28;10.40;;;1.67;;
45392;SDS011;31129;44.810;10.334;2022-07-06T02:47:54;7.38;;;1.60;;
45392;SDS011;31129;44.810;10.334;2022-07-06T02:50:21;9.15;;;1.38;;
45392;SDS011;31129;44.810;10.334;2022-07-06T02:52:47;3.05;;;1.38;;
45392;SDS011;31129;44.810;10.334;2022-07-06T02:55:12;8.35;;;1.38;;
45392;SDS011;31129;44.810;10.334;2022-07-06T02:57:40;6.15;;;1.50;;
45392;SDS011;31129;44.810;10.334;2022-07-06T03:00:06;2.88;;;1.25;;
45392;SDS011;31129;44.810;10.334;2022-07-06T03:02:32;5.18;;;1.42;;
45392;SDS011;31129;44.810;10.334;2022-07-06T03:04:58;4.95;;;1.35;;
45392;SDS011;31129;44.810;10.334;2022-07-06T03:07:25;5.25;;;1.30;;
45392;SDS011;31129;44.810;10.334;2022-07-06T03:09:51;2.45;;;1.25;;
45392;SDS011;31129;44.810;10.334;2022-07-06T03:12:17;3.80;;;1.15;;
45392;SDS011;31129;44.810;10.334;2022-07-06T03:14:42;4.00;;;1.30;;
45392;SDS011;31129;44.810;10.334;2022-07-06T03:17:08;13.55;;;1.63;;
45392;SDS011;31129;44.810;10.334;2022-07-06T03:19:34;3.55;;;1.33;;
45392;SDS011;31129;44.810;10.334;2022-07-06T03:22:00;4.90;;;1.48;;
45392;SDS011;31129;44.810;10.334;2022-07-06T03:24:25;3.85;;;1.30;;
45392;SDS011;31129;44.810;10.334;2022-07-06T03:26:51;4.25;;;1.10;;
45392;SDS011;31129;44.810;10.334;2022-07-06T03:29:17;7.05;;;1.05;;
45392;SDS011;31129;44.810;10.334;2022-07-06T03:31:43;2.83;;;1.15;;
45392;SDS011;31129;44.810;10.334;2022-07-06T03:34:09;2.35;;;1.00;;
45392;SDS011;31129;44.810;10.334;2022-07-06T03:36:35;10.40;;;2.15;;
45392;SDS011;31129;44.810;10.334;2022-07-06T03:39:00;4.35;;;1.02;;
45392;SDS011;31129;44.810;10.334;2022-07-06T03:41:26;3.47;;;1.15;;
45392;SDS011;31129;44.810;10.334;2022-07-06T03:43:52;7.47;;;1.73;;
45392;SDS011;31129;44.810;10.334;2022-07-06T03:46:17;6.70;;;1.25;;
45392;SDS011;31129;44.810;10.334;2022-07-06T03:48:43;4.57;;;1.10;;
45392;SDS011;31129;44.810;10.334;2022-07-06T03:51:09;5.93;;;1.45;;
45392;SDS011;31129;44.810;10.334;2022-07-06T03:53:36;5.07;;;1.15;;
45392;SDS011;31129;44.810;10.334;2022-07-06T03:56:02;8.50;;;1.30;;
45392;SDS011;31129;44.810;10.334;2022-07-06T03:58:47;5.32;;;1.13;;
45392;SDS011;31129;44.810;10.334;2022-07-06T04:01:12;4.43;;;1.50;;
45392;SDS011;31129;44.810;10.334;2022-07-06T04:03:38;7.72;;;1.27;;
45392;SDS011;31129;44.810;10.334;2022-07-06T04:06:07;2.95;;;1.02;;
45392;SDS011;31129;44.810;10.334;2022-07-06T04:08:33;2.15;;;1.27;;
45392;SDS011;31129;44.810;10.334;2022-07-06T04:10:59;1.50;;;1.00;;
45392;SDS011;31129;44.810;10.334;2022-07-06T04:13:26;3.75;;;1.20;;
45392;SDS011;31129;44.810;10.334;2022-07-06T04:15:52;3.20;;;0.93;;
45392;SDS011;31129;44.810;10.334;2022-07-06T04:18:18;4.82;;;1.17;;
45392;SDS011;31129;44.810;10.334;2022-07-06T04:20:48;5.50;;;1.17;;
45392;SDS011;31129;44.810;10.334;2022-07-06T04:23:13;4.03;;;1.00;;
45392;SDS011;31129;44.810;10.334;2022-07-06T04:25:39;5.43;;;1.20;;
45392;SDS011;31129;44.810;10.334;2022-07-06T04:28:06;5.40;;;1.00;;
45392;SDS011;31129;44.810;10.334;2022-07-06T04:30:34;2.50;;;1.10;;
45392;SDS011;31129;44.810;10.334;2022-07-06T04:33:04;6.53;;;1.08;;
45392;SDS011;31129;44.810;10.334;2022-07-06T04:35:32;3.83;;;1.15;;
45392;SDS011;31129;44.810;10.334;2022-07-06T04:37:57;2.90;;;1.55;;
45392;SDS011;31129;44.810;10.334;2022-07-06T04:40:24;7.53;;;1.20;;
45392;SDS011;31129;44.810;10.334;2022-07-06T04:42:54;6.43;;;1.23;;
45392;SDS011;31129;44.810;10.334;2022-07-06T04:45:20;7.28;;;1.65;;
45392;SDS011;31129;44.810;10.334;2022-07-06T04:47:49;4.18;;;1.10;;
45392;SDS011;31129;44.810;10.334;2022-07-06T04:50:16;9.00;;;0.88;;
45392;SDS011;31129;44.810;10.334;2022-07-06T04:52:42;5.37;;;1.83;;
45392;SDS011;31129;44.810;10.334;2022-07-06T04:55:09;1.33;;;0.80;;
45392;SDS011;31129;44.810;10.334;2022-07-06T04:57:35;5.53;;;1.23;;
45392;SDS011;31129;44.810;10.334;2022-07-06T05:00:03;10.15;;;1.40;;
45392;SDS011;31129;44.810;10.334;2022-07-06T05:02:29;2.45;;;1.45;;
45392;SDS011;31129;44.810;10.334;2022-07-06T05:04:55;3.78;;;1.15;;
45392;SDS011;31129;44.810;10.334;2022-07-06T05:07:21;2.58;;;1.10;;
45392;SDS011;31129;44.810;10.334;2022-07-06T05:09:47;1.25;;;1.00;;
45392;SDS011;31129;44.810;10.334;2022-07-06T05:12:13;10.70;;;1.30;;
45392;SDS011;31129;44.810;10.334;2022-07-06T05:14:38;3.75;;;1.25;;
45392;SDS011;31129;44.810;10.334;2022-07-06T05:17:05;4.22;;;1.17;;
45392;SDS011;31129;44.810;10.334;2022-07-06T05:19:31;3.53;;;1.50;;
45392;SDS011;31129;44.810;10.334;2022-07-06T05:21:57;3.90;;;1.15;;
45392;SDS011;31129;44.810;10.334;2022-07-06T05:24:22;8.00;;;1.02;;
45392;SDS011;31129;44.810;10.334;2022-07-06T05:26:48;2.08;;;0.93;;
45392;SDS011;31129;44.810;10.334;2022-07-06T05:29:15;3.70;;;1.10;;
45392;SDS011;31129;44.810;10.334;2022-07-06T05:31:43;2.78;;;1.20;;
45392;SDS011;31129;44.810;10.334;2022-07-06T05:34:09;11.88;;;1.20;;
45392;SDS011;31129;44.810;10.334;2022-07-06T05:36:35;6.53;;;1.20;;
45392;SDS011;31129;44.810;10.334;2022-07-06T05:39:01;4.53;;;0.82;;
45392;SDS011;31129;44.810;10.334;2022-07-06T05:41:28;1.73;;;0.88;;
45392;SDS011;31129;44.810;10.334;2022-07-06T05:43:54;1.90;;;0.85;;
45392;SDS011;31129;44.810;10.334;2022-07-06T05:46:20;1.30;;;0.77;;
45392;SDS011;31129;44.810;10.334;2022-07-06T05:48:46;2.35;;;1.10;;
45392;SDS011;31129;44.810;10.334;2022-07-06T05:51:31;3.60;;;0.98;;
45392;SDS011;31129;44.810;10.334;2022-07-06T05:53:57;3.55;;;0.80;;
45392;SDS011;31129;44.810;10.334;2022-07-06T05:56:22;1.88;;;0.95;;
45392;SDS011;31129;44.810;10.334;2022-07-06T05:58:48;2.50;;;1.00;;
45392;SDS011;31129;44.810;10.334;2022-07-06T06:01:13;5.07;;;0.77;;
45392;SDS011;31129;44.810;10.334;2022-07-06T06:03:44;4.80;;;1.10;;
45392;SDS011;31129;44.810;10.334;2022-07-06T06:06:11;5.53;;;0.95;;
45392;SDS011;31129;44.810;10.334;2022-07-06T06:08:36;2.40;;;1.27;;
45392;SDS011;31129;44.810;10.334;2022-07-06T06:11:03;3.70;;;1.00;;
45392;SDS011;31129;44.810;10.334;2022-07-06T06:13:29;4.72;;;1.25;;
45392;SDS011;31129;44.810;10.334;2022-07-06T06:15:54;4.38;;;1.17;;
45392;SDS011;31129;44.810;10.334;2022-07-06T06:18:20;2.45;;;0.90;;
45392;SDS011;31129;44.810;10.334;2022-07-06T06:20:45;4.18;;;1.10;;
45392;SDS011;31129;44.810;10.334;2022-07-06T06:23:11;0.77;;;0.70;;
45392;SDS011;31129;44.810;10.334;2022-07-06T06:25:37;1.83;;;0.82;;
45392;SDS011;31129;44.810;10.334;2022-07-06T06:28:04;6.27;;;1.07;;
45392;SDS011;31129;44.810;10.334;2022-07-06T06:30:32;5.40;;;1.00;;
45392;SDS011;31129;44.810;10.334;2022-07-06T06:33:07;4.07;;;1.02;;
45392;SDS011;31129;44.810;10.334;2022-07-06T06:35:38;4.43;;;1.00;;
45392;SDS011;31129;44.810;10.334;2022-07-06T06:38:09;6.90;;;1.63;;
45392;SDS011;31129;44.810;10.334;2022-07-06T06:40:35;8.85;;;1.70;;
45392;SDS011;31129;44.810;10.334;2022-07-06T06:43:01;6.95;;;0.88;;
45392;SDS011;31129;44.810;10.334;2022-07-06T06:45:28;2.42;;;0.90;;
45392;SDS011;31129;44.810;10.334;2022-07-06T06:47:56;3.72;;;1.40;;
45392;SDS011;31129;44.810;10.334;2022-07-06T06:50:22;1.00;;;0.80;;
45392;SDS011;31129;44.810;10.334;2022-07-06T06:52:50;11.25;;;1.63;;
45392;SDS011;31129;44.810;10.334;2022-07-06T06:55:17;3.47;;;0.80;;
45392;SDS011;31129;44.810;10.334;2022-07-06T06:57:42;1.50;;;0.98;;
45392;SDS011;31129;44.810;10.334;2022-07-06T07:00:09;3.67;;;1.60;;
45392;SDS011;31129;44.810;10.334;2022-07-06T07:02:35;3.72;;;0.73;;
45392;SDS011;31129;44.810;10.334;2022-07-06T07:05:00;4.53;;;1.27;;
45392;SDS011;31129;44.810;10.334;2022-07-06T07:07:26;2.60;;;0.77;;
45392;SDS011;31129;44.810;10.334;2022-07-06T07:09:51;4.60;;;0.85;;
45392;SDS011;31129;44.810;10.334;2022-07-06T07:12:17;5.13;;;1.00;;
45392;SDS011;31129;44.810;10.334;2022-07-06T07:14:45;7.95;;;1.10;;
45392;SDS011;31129;44.810;10.334;2022-07-06T07:17:12;3.15;;;1.00;;
45392;SDS011;31129;44.810;10.334;2022-07-06T07:19:38;2.38;;;1.08;;
45392;SDS011;31129;44.810;10.334;2022-07-06T07:22:04;15.75;;;1.85;;
45392;SDS011;31129;44.810;10.334;2022-07-06T07:24:30;5.95;;;1.05;;
45392;SDS011;31129;44.810;10.334;2022-07-06T07:26:56;2.38;;;0.90;;
45392;SDS011;31129;44.810;10.334;2022-07-06T07:29:21;7.18;;;1.55;;
45392;SDS011;31129;44.810;10.334;2022-07-06T07:31:47;2.63;;;1.10;;
45392;SDS011;31129;44.810;10.334;2022-07-06T07:34:12;4.47;;;0.98;;
45392;SDS011;31129;44.810;10.334;2022-07-06T07:36:38;4.22;;;0.90;;
45392;SDS011;31129;44.810;10.334;2022-07-06T07:39:06;3.63;;;1.38;;
45392;SDS011;31129;44.810;10.334;2022-07-06T07:41:32;4.25;;;0.90;;
45392;SDS011;31129;44.810;10.334;2022-07-06T07:43:57;3.22;;;1.17;;
45392;SDS011;31129;44.810;10.334;2022-07-06T07:46:27;7.10;;;1.10;;
45392;SDS011;31129;44.810;10.334;2022-07-06T07:48:52;5.97;;;1.48;;
45392;SDS011;31129;44.810;10.334;2022-07-06T07:51:19;1.95;;;0.90;;
45392;SDS011;31129;44.810;10.334;2022-07-06T07:53:44;4.38;;;1.30;;
45392;SDS011;31129;44.810;10.334;2022-07-06T07:56:10;7.50;;;2.30;;
45392;SDS011;31129;44.810;10.334;2022-07-06T07:58:36;3.70;;;0.95;;
45392;SDS011;31129;44.810;10.334;2022-07-06T08:01:02;7.65;;;1.38;;
45392;SDS011;31129;44.810;10.334;2022-07-06T08:03:29;4.93;;;1.00;;
45392;SDS011;31129;44.810;10.334;2022-07-06T08:05:56;2.78;;;0.85;;
45392;SDS011;31129;44.810;10.334;2022-07-06T08:08:22;6.10;;;0.90;;
45392;SDS011;31129;44.810;10.334;2022-07-06T08:10:48;4.72;;;0.82;;
45392;SDS011;31129;44.810;10.334;2022-07-06T08:13:13;4.15;;;1.25;;
45392;SDS011;31129;44.810;10.334;2022-07-06T08:15:40;4.15;;;1.20;;
45392;SDS011;31129;44.810;10.334;2022-07-06T08:18:07;2.50;;;1.05;;
45392;SDS011;31129;44.810;10.334;2022-07-06T08:20:35;5.20;;;1.00;;
45392;SDS011;31129;44.810;10.334;2022-07-06T08:23:01;5.32;;;1.20;;
45392;SDS011;31129;44.810;10.334;2022-07-06T08:25:27;6.43;;;1.23;;
45392;SDS011;31129;44.810;10.334;2022-07-06T08:27:52;8.60;;;1.55;;
45392;SDS011;31129;44.810;10.334;2022-07-06T08:30:18;2.40;;;1.30;;
45392;SDS011;31129;44.810;10.334;2022-07-06T08:32:43;3.47;;;1.20;;
45392;SDS011;31129;44.810;10.334;2022-07-06T08:35:10;7.10;;;1.45;;
45392;SDS011;31129;44.810;10.334;2022-07-06T08:37:36;9.68;;;1.80;;
45392;SDS011;31129;44.810;10.334;2022-07-06T08:40:02;5.05;;;1.98;;
45392;SDS011;31129;44.810;10.334;2022-07-06T08:42:32;9.32;;;1.88;;
45392;SDS011;31129;44.810;10.334;2022-07-06T08:44:59;3.42;;;1.50;;
45392;SDS011;31129;44.810;10.334;2022-07-06T08:47:28;9.13;;;1.65;;
45392;SDS011;31129;44.810;10.334;2022-07-06T08:49:56;5.93;;;1.40;;
45392;SDS011;31129;44.810;10.334;2022-07-06T08:52:23;5.68;;;1.70;;
45392;SDS011;31129;44.810;10.334;2022-07-06T08:54:49;6.80;;;1.60;;
45392;SDS011;31129;44.810;10.334;2022-07-06T08:57:15;5.68;;;2.20;;
45392;SDS011;31129;44.810;10.334;2022-07-06T08:59:42;5.07;;;1.50;;
45392;SDS011;31129;44.810;10.334;2022-07-06T09:02:09;6.82;;;1.60;;
45392;SDS011;31129;44.810;10.334;2022-07-06T09:04:36;2.25;;;1.20;;
45392;SDS011;31129;44.810;10.334;2022-07-06T09:07:02;9.50;;;1.70;;
45392;SDS011;31129;44.810;10.334;2022-07-06T09:09:29;6.45;;;1.60;;
45392;SDS011;31129;44.810;10.334;2022-07-06T09:11:57;5.88;;;1.50;;
45392;SDS011;31129;44.810;10.334;2022-07-06T09:14:23;9.32;;;1.85;;
45392;SDS011;31129;44.810;10.334;2022-07-06T09:16:58;3.95;;;1.55;;
45392;SDS011;31129;44.810;10.334;2022-07-06T09:19:28;4.68;;;1.80;;
45392;SDS011;31129;44.810;10.334;2022-07-06T09:21:56;3.13;;;1.50;;
45392;SDS011;31129;44.810;10.334;2022-07-06T09:24:21;3.92;;;1.55;;
45392;SDS011;31129;44.810;10.334;2022-07-06T09:26:47;5.40;;;1.65;;
45392;SDS011;31129;44.810;10.334;2022-07-06T09:29:13;9.07;;;1.80;;
45392;SDS011;31129;44.810;10.334;2022-07-06T09:31:39;3.67;;;1.42;;
45392;SDS011;31129;44.810;10.334;2022-07-06T09:34:06;4.93;;;1.47;;
45392;SDS011;31129;44.810;10.334;2022-07-06T09:39:18;8.60;;;1.98;;
45392;SDS011;31129;44.810;10.334;2022-07-06T09:41:51;9.02;;;1.92;;
45392;SDS011;31129;44.810;10.334;2022-07-06T09:44:21;5.97;;;1.70;;
45392;SDS011;31129;44.810;10.334;2022-07-06T09:46:49;6.72;;;1.58;;
45392;SDS011;31129;44.810;10.334;2022-07-06T09:49:18;3.25;;;1.38;;
45392;SDS011;31129;44.810;10.334;2022-07-06T09:51:49;8.98;;;1.40;;
45392;SDS011;31129;44.810;10.334;2022-07-06T09:54:17;7.45;;;1.50;;
45392;SDS011;31129;44.810;10.334;2022-07-06T09:56:44;4.38;;;1.90;;
45392;SDS011;31129;44.810;10.334;2022-07-06T09:59:16;2.92;;;1.40;;
45392;SDS011;31129;44.810;10.334;2022-07-06T10:01:44;5.32;;;2.03;;
45392;SDS011;31129;44.810;10.334;2022-07-06T10:04:11;9.73;;;2.10;;
45392;SDS011;31129;44.810;10.334;2022-07-06T10:06:39;3.75;;;1.48;;
45392;SDS011;31129;44.810;10.334;2022-07-06T10:09:06;7.80;;;1.55;;
45392;SDS011;31129;44.810;10.334;2022-07-06T10:11:40;5.93;;;1.50;;
45392;SDS011;31129;44.810;10.334;2022-07-06T10:14:28;6.65;;;1.90;;
45392;SDS011;31129;44.810;10.334;2022-07-06T10:16:58;7.65;;;1.95;;
45392;SDS011;31129;44.810;10.334;2022-07-06T10:19:25;7.85;;;1.83;;
45392;SDS011;31129;44.810;10.334;2022-07-06T10:21:52;6.00;;;1.60;;
45392;SDS011;31129;44.810;10.334;2022-07-06T10:24:18;8.77;;;2.63;;
45392;SDS011;31129;44.810;10.334;2022-07-06T10:26:45;5.18;;;1.55;;
45392;SDS011;31129;44.810;10.334;2022-07-06T10:29:12;3.10;;;1.60;;
45392;SDS011;31129;44.810;10.334;2022-07-06T10:31:40;4.35;;;1.63;;
45392;SDS011;31129;44.810;10.334;2022-07-06T10:34:12;7.72;;;1.73;;
45392;SDS011;31129;44.810;10.334;2022-07-06T10:36:41;7.25;;;2.05;;
45392;SDS011;31129;44.810;10.334;2022-07-06T10:39:08;6.85;;;2.20;;
45392;SDS011;31129;44.810;10.334;2022-07-06T10:41:54;3.75;;;1.70;;
45392;SDS011;31129;44.810;10.334;2022-07-06T10:44:26;5.70;;;2.00;;
45392;SDS011;31129;44.810;10.334;2022-07-06T10:46:53;5.03;;;1.70;;
45392;SDS011;31129;44.810;10.334;2022-07-06T10:49:20;6.43;;;1.90;;
45392;SDS011;31129;44.810;10.334;2022-07-06T10:54:17;4.20;;;1.58;;
45392;SDS011;31129;44.810;10.334;2022-07-06T10:56:45;8.30;;;2.05;;
45392;SDS011;31129;44.810;10.334;2022-07-06T10:59:16;6.40;;;1.80;;
45392;SDS011;31129;44.810;10.334;2022-07-06T11:04:47;8.73;;;1.88;;
45392;SDS011;31129;44.810;10.334;2022-07-06T11:07:14;2.92;;;1.55;;
45392;SDS011;31129;44.810;10.334;2022-07-06T11:09:44;4.72;;;1.60;;
45392;SDS011;31129;44.810;10.334;2022-07-06T11:12:19;8.40;;;2.03;;
45392;SDS011;31129;44.810;10.334;2022-07-06T11:14:46;4.07;;;1.73;;
45392;SDS011;31129;44.810;10.334;2022-07-06T11:17:13;6.30;;;1.90;;
45392;SDS011;31129;44.810;10.334;2022-07-06T11:19:47;5.05;;;1.73;;
45392;SDS011;31129;44.810;10.334;2022-07-06T11:22:24;8.15;;;1.73;;
45392;SDS011;31129;44.810;10.334;2022-07-06T11:24:51;4.20;;;1.55;;
45392;SDS011;31129;44.810;10.334;2022-07-06T11:27:18;5.57;;;1.67;;
45392;SDS011;31129;44.810;10.334;2022-07-06T11:29:43;4.95;;;1.77;;
45392;SDS011;31129;44.810;10.334;2022-07-06T11:32:10;6.20;;;1.80;;
45392;SDS011;31129;44.810;10.334;2022-07-06T11:34:45;7.10;;;1.95;;
45392;SDS011;31129;44.810;10.334;2022-07-06T11:37:12;4.03;;;2.00;;
45392;SDS011;31129;44.810;10.334;2022-07-06T11:39:39;6.97;;;2.05;;
45392;SDS011;31129;44.810;10.334;2022-07-06T11:42:09;7.28;;;1.90;;
45392;SDS011;31129;44.810;10.334;2022-07-06T11:44:36;7.68;;;2.05;;
45392;SDS011;31129;44.810;10.334;2022-07-06T11:47:03;4.72;;;1.70;;
45392;SDS011;31129;44.810;10.334;2022-07-06T11:49:30;5.15;;;1.90;;
45392;SDS011;31129;44.810;10.334;2022-07-06T11:51:56;5.03;;;2.10;;
45392;SDS011;31129;44.810;10.334;2022-07-06T11:54:23;3.53;;;2.17;;
45392;SDS011;31129;44.810;10.334;2022-07-06T11:56:56;6.15;;;2.08;;
45392;SDS011;31129;44.810;10.334;2022-07-06T12:02:02;9.98;;;2.20;;
45392;SDS011;31129;44.810;10.334;2022-07-06T12:04:40;9.25;;;1.88;;
45392;SDS011;31129;44.810;10.334;2022-07-06T12:07:11;11.38;;;1.95;;
45392;SDS011;31129;44.810;10.334;2022-07-06T12:09:39;5.05;;;1.58;;
45392;SDS011;31129;44.810;10.334;2022-07-06T12:14:35;4.32;;;1.65;;
45392;SDS011;31129;44.810;10.334;2022-07-06T12:17:06;4.40;;;1.77;;
45392;SDS011;31129;44.810;10.334;2022-07-06T12:19:33;7.35;;;1.40;;
45392;SDS011;31129;44.810;10.334;2022-07-06T12:21:59;6.65;;;1.80;;
45392;SDS011;31129;44.810;10.334;2022-07-06T12:24:27;8.18;;;1.40;;
45392;SDS011;31129;44.810;10.334;2022-07-06T12:27:09;5.90;;;1.77;;
45392;SDS011;31129;44.810;10.334;2022-07-06T12:29:46;7.55;;;2.15;;
45392;SDS011;31129;44.810;10.334;2022-07-06T12:32:19;4.57;;;1.75;;
45392;SDS011;31129;44.810;10.334;2022-07-06T12:35:04;8.00;;;1.98;;
45392;SDS011;31129;44.810;10.334;2022-07-06T12:37:34;2.97;;;1.58;;
45392;SDS011;31129;44.810;10.334;2022-07-06T12:40:13;3.88;;;1.27;;
45392;SDS011;31129;44.810;10.334;2022-07-06T12:42:46;4.85;;;1.45;;
45392;SDS011;31129;44.810;10.334;2022-07-06T12:45:12;4.07;;;1.50;;
45392;SDS011;31129;44.810;10.334;2022-07-06T12:47:38;5.63;;;1.65;;
45392;SDS011;31129;44.810;10.334;2022-07-06T12:50:09;10.15;;;2.20;;
45392;SDS011;31129;44.810;10.334;2022-07-06T12:52:36;5.63;;;1.77;;
45392;SDS011;31129;44.810;10.334;2022-07-06T12:55:03;6.15;;;1.50;;
45392;SDS011;31129;44.810;10.334;2022-07-06T12:57:41;6.22;;;1.73;;
45392;SDS011;31129;44.810;10.334;2022-07-06T13:00:11;4.07;;;1.60;;
45392;SDS011;31129;44.810;10.334;2022-07-06T13:02:37;13.90;;;1.73;;
45392;SDS011;31129;44.810;10.334;2022-07-06T13:05:08;6.15;;;1.73;;
45392;SDS011;31129;44.810;10.334;2022-07-06T13:07:36;4.97;;;1.63;;
45392;SDS011;31129;44.810;10.334;2022-07-06T13:10:08;5.78;;;1.75;;
45392;SDS011;31129;44.810;10.334;2022-07-06T13:12:35;7.22;;;1.70;;
45392;SDS011;31129;44.810;10.334;2022-07-06T13:15:02;5.40;;;2.13;;
45392;SDS011;31129;44.810;10.334;2022-07-06T13:17:32;3.03;;;1.30;;
45392;SDS011;31129;44.810;10.334;2022-07-06T13:19:58;7.95;;;1.60;;
45392;SDS011;31129;44.810;10.334;2022-07-06T13:22:23;5.45;;;1.80;;
45392;SDS011;31129;44.810;10.334;2022-07-06T13:24:49;7.40;;;1.67;;
45392;SDS011;31129;44.810;10.334;2022-07-06T13:27:14;3.45;;;1.50;;
45392;SDS011;31129;44.810;10.334;2022-07-06T13:29:40;6.38;;;1.73;;
45392;SDS011;31129;44.810;10.334;2022-07-06T13:32:06;2.88;;;1.77;;
45392;SDS011;31129;44.810;10.334;2022-07-06T13:34:32;9.30;;;2.08;;
45392;SDS011;31129;44.810;10.334;2022-07-06T13:37:00;5.30;;;1.63;;
45392;SDS011;31129;44.810;10.334;2022-07-06T13:39:26;3.10;;;1.50;;
45392;SDS011;31129;44.810;10.334;2022-07-06T13:41:53;4.50;;;1.50;;
45392;SDS011;31129;44.810;10.334;2022-07-06T13:44:19;4.18;;;1.40;;
45392;SDS011;31129;44.810;10.334;2022-07-06T13:46:45;9.32;;;2.00;;
45392;SDS011;31129;44.810;10.334;2022-07-06T13:49:13;3.05;;;1.40;;
45392;SDS011;31129;44.810;10.334;2022-07-06T13:51:39;8.23;;;1.70;;
45392;SDS011;31129;44.810;10.334;2022-07-06T13:54:05;2.35;;;1.30;;
45392;SDS011;31129;44.810;10.334;2022-07-06T13:56:31;8.88;;;1.55;;
45392;SDS011;31129;44.810;10.334;2022-07-06T13:58:58;4.80;;;1.70;;
45392;SDS011;31129;44.810;10.334;2022-07-06T14:01:25;4.53;;;1.40;;
45392;SDS011;31129;44.810;10.334;2022-07-06T14:03:51;4.63;;;1.70;;
45392;SDS011;31129;44.810;10.334;2022-07-06T14:06:18;9.60;;;1.83;;
45392;SDS011;31129;44.810;10.334;2022-07-06T14:08:44;5.03;;;1.92;;
45392;SDS011;31129;44.810;10.334;2022-07-06T14:11:10;7.35;;;1.65;;
45392;SDS011;31129;44.810;10.334;2022-07-06T14:13:36;4.95;;;1.70;;
45392;SDS011;31129;44.810;10.334;2022-07-06T14:16:02;6.35;;;1.60;;
45392;SDS011;31129;44.810;10.334;2022-07-06T14:20:55;9.97;;;2.30;;
45392;SDS011;31129;44.810;10.334;2022-07-06T14:23:21;5.70;;;1.58;;
45392;SDS011;31129;44.810;10.334;2022-07-06T14:25:47;10.85;;;2.08;;
45392;SDS011;31129;44.810;10.334;2022-07-06T14:28:13;6.88;;;1.80;;
45392;SDS011;31129;44.810;10.334;2022-07-06T14:30:42;8.85;;;2.00;;
45392;SDS011;31129;44.810;10.334;2022-07-06T14:33:10;4.35;;;1.60;;
45392;SDS011;31129;44.810;10.334;2022-07-06T14:35:38;5.68;;;1.70;;
45392;SDS011;31129;44.810;10.334;2022-07-06T14:38:06;9.95;;;1.98;;
45392;SDS011;31129;44.810;10.334;2022-07-06T14:40:32;5.97;;;1.70;;
45392;SDS011;31129;44.810;10.334;2022-07-06T14:42:59;6.75;;;1.67;;
45392;SDS011;31129;44.810;10.334;2022-07-06T14:45:25;5.32;;;1.80;;
45392;SDS011;31129;44.810;10.334;2022-07-06T14:47:51;2.22;;;1.50;;
45392;SDS011;31129;44.810;10.334;2022-07-06T14:50:17;9.25;;;2.03;;